Time;durP1;ratioP1;P1;durP2;ratioP2;P2;SDS_P1;SDS_P2;PMS_P1;PMS_P2;Temp;Humidity;BMP_temperature;BMP_pressure;BME280_temperature;BME280_humidity;BME280_pressure;Samples;Min_cycle;Max_cycle;Signal;HPM_P1;HPM_P2
2022/06/05 00:00:58;;;;;;;4.55;4.25;;;;;;;;;;4951277;29;20269;-88
2022/06/05 00:03:28;;;;;;;4.60;4.30;;;;;;;;;;4952885;29;20263;-87
2022/06/05 00:06:03;;;;;;;4.60;4.30;;;;;;;;;;4962315;29;20247;-88
2022/06/05 00:08:36;;;;;;;4.47;4.18;;;;;;;;;;4949149;29;20724;-88
2022/06/05 00:11:04;;;;;;;4.25;4.00;;;;;;;;;;4947466;29;20235;-88
2022/06/05 00:13:34;;;;;;;4.50;4.20;;;;;;;;;;4955355;29;20226;-88
2022/06/05 00:16:01;;;;;;;4.50;4.20;;;;;;;;;;4946725;29;20205;-88
2022/06/05 00:18:33;;;;;;;4.47;4.18;;;;;;;;;;4958667;29;20251;-88
2022/06/05 00:21:01;;;;;;;4.40;4.10;;;;;;;;;;4961588;29;20295;-87
2022/06/05 00:23:30;;;;;;;4.38;4.07;;;;;;;;;;4958119;29;20205;-88
2022/06/05 00:26:00;;;;;;;4.50;4.20;;;;;;;;;;4946036;29;20208;-86
2022/06/05 00:28:32;;;;;;;4.50;4.20;;;;;;;;;;4956913;28;20227;-88
2022/06/05 00:31:03;;;;;;;4.40;4.10;;;;;;;;;;4951035;29;20248;-88
2022/06/05 00:33:33;;;;;;;4.35;4.05;;;;;;;;;;4956160;29;20227;-88
2022/06/05 00:36:08;;;;;;;4.38;4.07;;;;;;;;;;4955604;29;20213;-88
2022/06/05 00:38:40;;;;;;;4.85;4.45;;;;;;;;;;4962717;28;20232;-88
2022/06/05 00:41:19;;;;;;;4.50;4.20;;;;;;;;;;4950070;29;20210;-88
2022/06/05 00:43:47;;;;;;;4.43;4.13;;;;;;;;;;4950070;29;20215;-87
2022/06/05 00:46:14;;;;;;;4.55;4.25;;;;;;;;;;4953177;29;20213;-88
2022/06/05 00:48:41;;;;;;;4.13;3.92;;;;;;;;;;4943152;29;20617;-88
2022/06/05 00:51:10;;;;;;;4.38;4.07;;;;;;;;;;4958675;29;20227;-87
2022/06/05 00:53:38;;;;;;;4.00;3.80;;;;;;;;;;4961467;29;20263;-87
2022/06/05 00:56:05;;;;;;;4.50;4.20;;;;;;;;;;4952826;29;20213;-88
2022/06/05 00:58:32;;;;;;;4.43;4.13;;;;;;;;;;4942913;29;20233;-88
2022/06/05 01:01:00;;;;;;;4.13;3.90;;;;;;;;;;4956834;29;20204;-88
2022/06/05 01:03:27;;;;;;;4.40;4.10;;;;;;;;;;4947877;29;20217;-88
2022/06/05 01:05:55;;;;;;;4.30;4.05;;;;;;;;;;4949697;29;20213;-88
2022/06/05 01:08:25;;;;;;;4.28;3.95;;;;;;;;;;4955807;29;20208;-88
2022/06/05 01:10:57;;;;;;;4.00;3.72;;;;;;;;;;4968169;29;20220;-87
2022/06/05 01:13:30;;;;;;;4.50;4.20;;;;;;;;;;4962900;29;20265;-88
2022/06/05 01:15:58;;;;;;;4.07;3.85;;;;;;;;;;4948504;29;20259;-88
2022/06/05 01:18:30;;;;;;;4.63;4.32;;;;;;;;;;4959078;29;20260;-88
2022/06/05 01:21:02;;;;;;;4.68;4.38;;;;;;;;;;4946292;29;20209;-88
2022/06/05 01:23:41;;;;;;;4.43;4.13;;;;;;;;;;4948473;29;20201;-88
2022/06/05 01:26:19;;;;;;;4.72;4.43;;;;;;;;;;4960643;29;20212;-88
2022/06/05 01:28:52;;;;;;;4.18;3.97;;;;;;;;;;4952106;28;20283;-87
2022/06/05 01:31:21;;;;;;;4.53;4.15;;;;;;;;;;4942708;29;20228;-87
2022/06/05 01:33:53;;;;;;;4.75;4.43;;;;;;;;;;4958804;29;20261;-88
2022/06/05 01:36:24;;;;;;;4.30;4.10;;;;;;;;;;4942424;29;20244;-88
2022/06/05 01:38:55;;;;;;;4.70;4.40;;;;;;;;;;4947536;29;20240;-88
2022/06/05 01:41:25;;;;;;;4.25;4.00;;;;;;;;;;4946168;29;20260;-88
2022/06/05 01:43:54;;;;;;;3.97;3.78;;;;;;;;;;4946018;29;20331;-88
2022/06/05 01:46:24;;;;;;;4.30;4.00;;;;;;;;;;4944143;29;20208;-87
2022/06/05 01:48:53;;;;;;;4.15;3.90;;;;;;;;;;4956645;28;20304;-88
2022/06/05 01:51:23;;;;;;;4.35;4.05;;;;;;;;;;4958703;29;20315;-88
2022/06/05 01:53:51;;;;;;;4.72;4.43;;;;;;;;;;4944326;29;20213;-88
2022/06/05 01:56:20;;;;;;;4.32;4.03;;;;;;;;;;4946948;29;20213;-88
2022/06/05 01:58:51;;;;;;;4.45;4.15;;;;;;;;;;4942340;29;20705;-88
2022/06/05 02:01:19;;;;;;;4.63;4.32;;;;;;;;;;4956783;29;20767;-88
2022/06/05 02:03:49;;;;;;;4.50;4.20;;;;;;;;;;4944912;29;20210;-88
2022/06/05 02:06:19;;;;;;;4.30;4.00;;;;;;;;;;4946711;29;20204;-88
2022/06/05 02:08:48;;;;;;;4.65;4.35;;;;;;;;;;4954055;28;20259;-87
2022/06/05 02:11:18;;;;;;;4.47;4.18;;;;;;;;;;4954360;29;20272;-87
2022/06/05 02:13:45;;;;;;;4.13;3.83;;;;;;;;;;4948628;29;20220;-88
2022/06/05 02:16:14;;;;;;;4.40;4.10;;;;;;;;;;4948470;29;20201;-88
2022/06/05 02:18:41;;;;;;;4.40;4.10;;;;;;;;;;4942532;29;20233;-87
2022/06/05 02:21:08;;;;;;;4.63;4.32;;;;;;;;;;4948810;29;20232;-87
2022/06/05 02:23:37;;;;;;;4.18;3.97;;;;;;;;;;4960246;29;20208;-87
2022/06/05 02:26:05;;;;;;;4.53;4.22;;;;;;;;;;4956243;29;20232;-87
2022/06/05 02:28:33;;;;;;;4.18;3.97;;;;;;;;;;4959621;28;20766;-88
2022/06/05 02:31:07;;;;;;;4.40;4.13;;;;;;;;;;4948050;29;20286;-88
2022/06/05 02:33:40;;;;;;;3.90;3.70;;;;;;;;;;4957551;29;20205;-88
2022/06/05 02:36:20;;;;;;;4.40;4.10;;;;;;;;;;4955351;29;20208;-87
2022/06/05 02:38:53;;;;;;;4.43;4.13;;;;;;;;;;4949260;29;20220;-87
2022/06/05 02:41:24;;;;;;;4.72;4.32;;;;;;;;;;4955062;29;20239;-88
2022/06/05 02:46:37;;;;;;;4.15;3.92;;;;;;;;;;4955609;29;20690;-88
2022/06/05 02:49:08;;;;;;;4.43;4.13;;;;;;;;;;4958554;28;20236;-88
2022/06/05 02:51:37;;;;;;;4.45;4.15;;;;;;;;;;4946242;29;20225;-87
2022/06/05 02:54:06;;;;;;;4.35;4.05;;;;;;;;;;4940552;29;20240;-88
2022/06/05 02:56:34;;;;;;;4.20;4.00;;;;;;;;;;4958626;29;20628;-87
2022/06/05 02:59:03;;;;;;;4.70;4.40;;;;;;;;;;4955082;28;20282;-88
2022/06/05 03:04:17;;;;;;;4.78;4.40;;;;;;;;;;4952316;28;20223;-85
2022/06/05 03:06:44;;;;;;;4.50;4.20;;;;;;;;;;4954936;29;20231;-86
2022/06/05 03:09:12;;;;;;;4.40;4.10;;;;;;;;;;4949728;29;20224;-85
2022/06/05 03:11:39;;;;;;;4.10;3.90;;;;;;;;;;4944076;29;20324;-85
2022/06/05 03:14:06;;;;;;;4.43;4.13;;;;;;;;;;4939902;29;20236;-85
2022/06/05 03:16:34;;;;;;;4.38;4.07;;;;;;;;;;4946149;29;20291;-85
2022/06/05 03:19:01;;;;;;;4.53;4.22;;;;;;;;;;4939503;29;20251;-85
2022/06/05 03:21:33;;;;;;;4.63;4.32;;;;;;;;;;4946170;29;20204;-85
2022/06/05 03:24:00;;;;;;;4.35;4.05;;;;;;;;;;4940093;29;20216;-85
2022/06/05 03:26:27;;;;;;;4.38;4.07;;;;;;;;;;4952537;29;20208;-88
2022/06/05 03:28:55;;;;;;;4.25;4.00;;;;;;;;;;4963982;28;20287;-87
2022/06/05 03:31:22;;;;;;;4.35;4.10;;;;;;;;;;4956253;29;20279;-88
2022/06/05 03:33:50;;;;;;;4.35;4.15;;;;;;;;;;4947191;29;20651;-87
2022/06/05 03:36:18;;;;;;;4.65;4.35;;;;;;;;;;4958005;29;20208;-88
2022/06/05 03:38:47;;;;;;;4.10;3.90;;;;;;;;;;4963535;28;20247;-88
2022/06/05 03:41:15;;;;;;;4.55;4.25;;;;;;;;;;4960902;29;20228;-88
2022/06/05 03:43:43;;;;;;;4.50;4.20;;;;;;;;;;4943223;29;20270;-88
2022/06/05 03:46:12;;;;;;;4.65;4.35;;;;;;;;;;4950083;29;20215;-88
2022/06/05 03:48:39;;;;;;;4.68;4.38;;;;;;;;;;4950380;28;20252;-88
2022/06/05 03:51:07;;;;;;;4.30;4.10;;;;;;;;;;4955359;29;20231;-88
2022/06/05 03:53:34;;;;;;;4.50;4.20;;;;;;;;;;4942899;29;20300;-88
2022/06/05 03:56:03;;;;;;;4.32;4.00;;;;;;;;;;4951461;29;20240;-88
2022/06/05 03:58:30;;;;;;;4.68;4.38;;;;;;;;;;4961385;28;20235;-87
2022/06/05 04:00:58;;;;;;;4.55;4.25;;;;;;;;;;4959068;29;20204;-88
2022/06/05 04:03:25;;;;;;;4.22;3.97;;;;;;;;;;4952172;29;20220;-87
2022/06/05 04:05:52;;;;;;;4.72;4.43;;;;;;;;;;4953621;29;20233;-88
2022/06/05 04:08:19;;;;;;;4.60;4.30;;;;;;;;;;4942353;29;20229;-87
2022/06/05 04:10:47;;;;;;;4.50;4.20;;;;;;;;;;4949321;29;20201;-88
2022/06/05 04:13:15;;;;;;;4.70;4.40;;;;;;;;;;4957621;29;20243;-88
2022/06/05 04:15:43;;;;;;;4.80;4.50;;;;;;;;;;4952259;29;20284;-87
2022/06/05 04:18:10;;;;;;;4.65;4.35;;;;;;;;;;4950421;28;20235;-87
2022/06/05 04:20:39;;;;;;;4.63;4.22;;;;;;;;;;4953857;29;20235;-88
2022/06/05 04:23:08;;;;;;;4.65;4.35;;;;;;;;;;4952357;29;20291;-88
2022/06/05 04:25:36;;;;;;;4.80;4.50;;;;;;;;;;4942488;29;20229;-87
2022/06/05 04:28:04;;;;;;;4.43;4.13;;;;;;;;;;4952790;29;20224;-88
2022/06/05 04:30:36;;;;;;;4.72;4.43;;;;;;;;;;4958270;29;20213;-87
2022/06/05 04:33:03;;;;;;;4.70;4.40;;;;;;;;;;4954073;29;20224;-87
2022/06/05 04:35:31;;;;;;;4.57;4.28;;;;;;;;;;4950507;29;20213;-88
2022/06/05 04:37:58;;;;;;;4.85;4.55;;;;;;;;;;4947024;28;20213;-88
2022/06/05 04:40:26;;;;;;;5.13;4.82;;;;;;;;;;4947486;28;20780;-88
2022/06/05 04:42:54;;;;;;;4.82;4.40;;;;;;;;;;4958167;29;20201;-88
2022/06/05 04:45:22;;;;;;;4.28;4.07;;;;;;;;;;4942131;29;20216;-88
2022/06/05 04:47:51;;;;;;;4.53;4.22;;;;;;;;;;4939370;29;20236;-88
2022/06/05 04:50:19;;;;;;;4.40;4.10;;;;;;;;;;4939325;29;20289;-88
2022/06/05 04:52:47;;;;;;;4.72;4.43;;;;;;;;;;4940013;29;20328;-89
2022/06/05 04:55:14;;;;;;;4.55;4.35;;;;;;;;;;4956587;29;20256;-89
2022/06/05 04:57:43;;;;;;;4.60;4.30;;;;;;;;;;4938522;29;20210;-87
2022/06/05 05:00:12;;;;;;;4.90;4.40;;;;;;;;;;4951168;29;20224;-88
2022/06/05 05:02:39;;;;;;;4.93;4.63;;;;;;;;;;4939823;29;20260;-88
2022/06/05 05:05:09;;;;;;;4.88;4.57;;;;;;;;;;4940470;29;20213;-88
2022/06/05 05:07:36;;;;;;;4.55;4.25;;;;;;;;;;4952199;29;20243;-88
2022/06/05 05:10:04;;;;;;;4.75;4.40;;;;;;;;;;4953482;28;20315;-89
2022/06/05 05:12:31;;;;;;;4.60;4.30;;;;;;;;;;4938542;29;20225;-88
2022/06/05 05:14:58;;;;;;;4.80;4.50;;;;;;;;;;4941501;29;20255;-89
2022/06/05 05:17:26;;;;;;;4.97;4.68;;;;;;;;;;4943078;29;20213;-88
2022/06/05 05:19:53;;;;;;;4.93;4.63;;;;;;;;;;4951006;29;20259;-89
2022/06/05 05:22:22;;;;;;;4.85;4.55;;;;;;;;;;4949409;29;20211;-88
2022/06/05 05:24:49;;;;;;;4.30;4.05;;;;;;;;;;4954384;29;20224;-88
2022/06/05 05:27:16;;;;;;;5.00;4.70;;;;;;;;;;4947652;28;20201;-88
2022/06/05 05:29:44;;;;;;;4.70;4.40;;;;;;;;;;4946307;29;20253;-88
2022/06/05 05:32:11;;;;;;;4.22;4.03;;;;;;;;;;4946602;29;20315;-88
2022/06/05 05:34:39;;;;;;;4.90;4.60;;;;;;;;;;4948125;29;20205;-88
2022/06/05 05:37:06;;;;;;;4.72;4.43;;;;;;;;;;4942455;29;20233;-91
2022/06/05 05:42:20;;;;;;;4.47;4.18;;;;;;;;;;4953113;29;20211;-89
2022/06/05 05:44:48;;;;;;;4.63;4.32;;;;;;;;;;4947910;29;20201;-90
2022/06/05 05:47:17;;;;;;;4.80;4.50;;;;;;;;;;4955088;29;20215;-88
2022/06/05 05:49:45;;;;;;;4.97;4.57;;;;;;;;;;4959516;29;20224;-89
2022/06/05 05:52:15;;;;;;;4.57;4.28;;;;;;;;;;4952540;29;20232;-88
2022/06/05 05:54:44;;;;;;;4.25;4.05;;;;;;;;;;4951388;29;20208;-89
2022/06/05 05:57:11;;;;;;;4.70;4.40;;;;;;;;;;4953759;29;20205;-89
2022/06/05 05:59:39;;;;;;;4.68;4.38;;;;;;;;;;4956149;29;20240;-88
2022/06/05 06:02:11;;;;;;;4.90;4.60;;;;;;;;;;4947722;29;20216;-89
2022/06/05 06:04:38;;;;;;;4.57;4.30;;;;;;;;;;4950983;29;20208;-88
2022/06/05 06:07:07;;;;;;;4.97;4.57;;;;;;;;;;4956440;28;20291;-89
2022/06/05 06:09:34;;;;;;;4.93;4.63;;;;;;;;;;4948703;28;20732;-89
2022/06/05 06:12:04;;;;;;;4.90;4.60;;;;;;;;;;4952660;29;20249;-89
2022/06/05 06:14:31;;;;;;;4.70;4.40;;;;;;;;;;4950085;29;20203;-89
2022/06/05 06:17:00;;;;;;;4.95;4.60;;;;;;;;;;4951807;29;20209;-88
2022/06/05 06:19:27;;;;;;;4.90;4.53;;;;;;;;;;4950276;29;20290;-88
2022/06/05 06:21:55;;;;;;;4.82;4.53;;;;;;;;;;4951163;29;20217;-89
2022/06/05 06:24:22;;;;;;;4.50;4.20;;;;;;;;;;4949091;29;20205;-88
2022/06/05 06:26:49;;;;;;;4.40;4.20;;;;;;;;;;4947417;29;20205;-88
2022/06/05 06:29:18;;;;;;;4.60;4.30;;;;;;;;;;4948811;29;20268;-88
2022/06/05 06:31:46;;;;;;;4.43;4.13;;;;;;;;;;4948360;29;20223;-88
2022/06/05 06:34:15;;;;;;;4.85;4.45;;;;;;;;;;4948296;29;20209;-88
2022/06/05 06:36:42;;;;;;;4.82;4.50;;;;;;;;;;4948008;29;20205;-88
2022/06/05 06:39:10;;;;;;;4.60;4.30;;;;;;;;;;4951935;29;20231;-89
2022/06/05 06:41:37;;;;;;;4.93;4.55;;;;;;;;;;4949585;29;20232;-88
2022/06/05 06:44:11;;;;;;;4.43;4.13;;;;;;;;;;4949926;29;20606;-88
2022/06/05 06:46:40;;;;;;;4.97;4.57;;;;;;;;;;4952376;29;20210;-89
2022/06/05 06:49:07;;;;;;;5.22;4.47;;;;;;;;;;4949261;29;20221;-89
2022/06/05 06:51:38;;;;;;;4.38;4.00;;;;;;;;;;4950147;28;20204;-89
2022/06/05 06:54:05;;;;;;;4.30;4.00;;;;;;;;;;4950423;28;20268;-85
2022/06/05 06:56:33;;;;;;;4.72;4.32;;;;;;;;;;4942956;29;20201;-89
2022/06/05 06:59:01;;;;;;;4.93;4.53;;;;;;;;;;4950104;29;20231;-89
2022/06/05 07:01:29;;;;;;;5.38;4.60;;;;;;;;;;4947270;29;20211;-90
2022/06/05 07:03:58;;;;;;;4.57;4.28;;;;;;;;;;4941570;29;20216;-90
2022/06/05 07:06:27;;;;;;;4.78;4.38;;;;;;;;;;4937754;29;20729;-90
2022/06/05 07:08:54;;;;;;;5.15;4.68;;;;;;;;;;4943706;29;20235;-89
2022/06/05 07:11:24;;;;;;;4.35;4.05;;;;;;;;;;4948129;29;20201;-88
2022/06/05 07:13:53;;;;;;;4.90;4.43;;;;;;;;;;4944191;29;20245;-90
2022/06/05 07:16:22;;;;;;;4.90;4.50;;;;;;;;;;4940463;29;20219;-89
2022/06/05 07:18:50;;;;;;;4.43;4.03;;;;;;;;;;4946425;28;20242;-90
2022/06/05 07:21:21;;;;;;;5.05;4.57;;;;;;;;;;4952895;29;20256;-89
2022/06/05 07:23:50;;;;;;;4.75;4.20;;;;;;;;;;4951593;29;20283;-89
2022/06/05 07:26:22;;;;;;;4.38;4.00;;;;;;;;;;4951817;29;20205;-89
2022/06/05 07:28:53;;;;;;;4.47;4.07;;;;;;;;;;4947644;29;20283;-89
2022/06/05 07:31:26;;;;;;;4.05;3.75;;;;;;;;;;4951208;28;20246;-90
2022/06/05 07:33:55;;;;;;;4.40;4.00;;;;;;;;;;4954916;28;20226;-89
2022/06/05 07:36:26;;;;;;;4.50;4.20;;;;;;;;;;4949821;28;20228;-90
2022/06/05 07:39:01;;;;;;;4.30;3.88;;;;;;;;;;4941456;29;20234;-90
2022/06/05 07:41:29;;;;;;;4.55;4.18;;;;;;;;;;4950148;29;20209;-90
2022/06/05 07:43:57;;;;;;;4.80;4.10;;;;;;;;;;4949507;29;20228;-89
2022/06/05 07:46:29;;;;;;;5.15;3.80;;;;;;;;;;4934407;29;20217;-89
2022/06/05 07:48:59;;;;;;;4.70;4.00;;;;;;;;;;4941372;29;20733;-90
2022/06/05 07:54:37;;;;;;;4.20;3.80;;;;;;;;;;4938269;29;20725;-89
2022/06/05 07:57:05;;;;;;;4.40;3.92;;;;;;;;;;4953318;29;20214;-89
2022/06/05 07:59:35;;;;;;;4.15;3.78;;;;;;;;;;4994589;23;20245;-88
2022/06/05 08:02:14;;;;;;;4.88;4.47;;;;;;;;;;4986483;28;20239;-90
2022/06/05 08:04:46;;;;;;;5.00;4.05;;;;;;;;;;4977553;28;20213;-90
2022/06/05 08:07:16;;;;;;;4.72;4.03;;;;;;;;;;4978202;28;20278;-89
2022/06/05 08:09:43;;;;;;;4.55;4.00;;;;;;;;;;4973303;28;20227;-90
2022/06/05 08:12:12;;;;;;;4.38;4.00;;;;;;;;;;4981168;28;20231;-89
2022/06/05 08:14:41;;;;;;;4.68;4.30;;;;;;;;;;4978433;28;20203;-87
2022/06/05 08:17:18;;;;;;;4.30;4.00;;;;;;;;;;4969718;28;20204;-88
2022/06/05 08:19:47;;;;;;;4.60;4.20;;;;;;;;;;4967023;28;20227;-87
2022/06/05 08:22:27;;;;;;;5.07;4.60;;;;;;;;;;4972657;28;20211;-89
2022/06/05 08:24:55;;;;;;;4.88;4.38;;;;;;;;;;4976253;28;20248;-88
2022/06/05 08:27:28;;;;;;;4.90;4.40;;;;;;;;;;4988231;28;20627;-89
2022/06/05 08:29:56;;;;;;;6.57;4.60;;;;;;;;;;4988398;28;20227;-88
2022/06/05 08:32:30;;;;;;;4.68;4.28;;;;;;;;;;4973868;28;20696;-91
2022/06/05 08:43:33;;;;;;;4.65;4.22;;;;;;;;;;4989359;28;20203;-89
2022/06/05 08:46:06;;;;;;;4.60;4.20;;;;;;;;;;4972118;28;20218;-89
2022/06/05 08:48:37;;;;;;;4.32;3.92;;;;;;;;;;4977986;28;20224;-89
2022/06/05 08:51:33;;;;;;;4.50;4.10;;;;;;;;;;4975475;28;20214;-89
2022/06/05 08:54:05;;;;;;;4.00;3.70;;;;;;;;;;4956684;28;20231;-89
2022/06/05 08:56:40;;;;;;;3.83;3.53;;;;;;;;;;4967813;28;20212;-89
2022/06/05 08:59:20;;;;;;;4.25;3.88;;;;;;;;;;4974978;28;20235;-88
2022/06/05 09:01:53;;;;;;;4.60;3.70;;;;;;;;;;4973912;28;20295;-87
2022/06/05 09:04:27;;;;;;;4.10;3.60;;;;;;;;;;4977381;28;20195;-88
2022/06/05 09:06:57;;;;;;;3.72;3.40;;;;;;;;;;4977482;28;20329;-88
2022/06/05 09:09:28;;;;;;;4.05;3.30;;;;;;;;;;4972206;28;20238;-87
2022/06/05 09:12:00;;;;;;;3.45;3.20;;;;;;;;;;4970047;28;20204;-88
2022/06/05 09:14:31;;;;;;;3.25;2.95;;;;;;;;;;4971355;28;20286;-88
2022/06/05 09:17:04;;;;;;;3.70;3.40;;;;;;;;;;4972880;28;20216;-88
2022/06/05 09:19:34;;;;;;;3.38;3.08;;;;;;;;;;4970346;28;20251;-88
2022/06/05 09:22:05;;;;;;;3.20;2.90;;;;;;;;;;4969618;28;20231;-87
2022/06/05 09:24:40;;;;;;;3.50;3.15;;;;;;;;;;4968146;28;20232;-88
2022/06/05 09:27:13;;;;;;;3.40;2.90;;;;;;;;;;4970645;28;20214;-88
2022/06/05 09:29:43;;;;;;;3.38;3.17;;;;;;;;;;4967716;28;20223;-87
2022/06/05 09:32:21;;;;;;;3.42;2.80;;;;;;;;;;4976040;28;20275;-87
2022/06/05 09:37:41;;;;;;;3.58;3.28;;;;;;;;;;4914984;28;20212;-88
2022/06/05 10:00:44;;;;;;;3.28;2.50;;;;;;;;;;4977592;28;20223;-90
2022/06/05 10:03:29;;;;;;;3.97;2.78;;;;;;;;;;4902180;29;20202;-88
2022/06/05 10:06:22;;;;;;;4.20;2.42;;;;;;;;;;4974039;28;20232;-89
2022/06/05 10:08:53;;;;;;;2.83;2.22;;;;;;;;;;4967614;28;20271;-88
2022/06/05 10:11:53;;;;;;;3.63;2.47;;;;;;;;;;4970431;28;20208;-89
2022/06/05 10:17:49;;;;;;;3.42;2.25;;;;;;;;;;4927809;28;20212;-88
2022/06/05 10:23:32;;;;;;;2.40;2.10;;;;;;;;;;4966791;28;20223;-88
2022/06/05 10:28:56;;;;;;;2.70;2.00;;;;;;;;;;4967251;28;20275;-88
2022/06/05 10:31:41;;;;;;;4.53;2.20;;;;;;;;;;4973033;28;20282;-89
2022/06/05 10:34:14;;;;;;;2.30;2.10;;;;;;;;;;4969939;28;20223;-87
2022/06/05 10:36:53;;;;;;;3.40;2.05;;;;;;;;;;4971749;28;20200;-86
2022/06/05 10:39:24;;;;;;;6.85;2.80;;;;;;;;;;4972733;28;20207;-85
2022/06/05 10:42:04;;;;;;;4.50;2.92;;;;;;;;;;4971850;28;20216;-87
2022/06/05 10:44:35;;;;;;;7.18;2.85;;;;;;;;;;4977630;28;20245;-88
2022/06/05 10:47:21;;;;;;;4.80;2.17;;;;;;;;;;4971804;28;20207;-87
2022/06/05 10:49:57;;;;;;;4.90;2.35;;;;;;;;;;4965089;28;20283;-86
2022/06/05 10:52:41;;;;;;;4.65;2.20;;;;;;;;;;4968961;28;20253;-86
2022/06/05 11:01:08;;;;;;;13.13;7.75;;;;;;;;;;4968593;28;20228;-86
2022/06/05 11:03:41;;;;;;;39.28;28.23;;;;;;;;;;4970206;28;20204;-86
2022/06/05 11:06:25;;;;;;;51.58;42.67;;;;;;;;;;4973602;28;20215;-85
2022/06/05 11:08:57;;;;;;;73.95;56.72;;;;;;;;;;4971748;28;20207;-89
2022/06/05 11:14:16;;;;;;;100.13;77.60;;;;;;;;;;4971757;28;20329;-87
2022/06/05 11:16:53;;;;;;;137.98;102.72;;;;;;;;;;4971873;28;20237;-86
2022/06/05 11:19:41;;;;;;;183.32;138.48;;;;;;;;;;4970453;28;20215;-87
2022/06/05 11:22:31;;;;;;;179.35;138.77;;;;;;;;;;4971835;28;20211;-89
2022/06/05 11:25:03;;;;;;;151.27;121.97;;;;;;;;;;4979452;28;20192;-86
2022/06/05 11:27:36;;;;;;;135.35;107.10;;;;;;;;;;4976774;28;20204;-87
2022/06/05 11:30:18;;;;;;;126.63;96.25;;;;;;;;;;4965504;28;20220;-88
2022/06/05 11:32:54;;;;;;;114.53;88.43;;;;;;;;;;4980237;28;20227;-88
2022/06/05 11:35:27;;;;;;;106.68;83.68;;;;;;;;;;4969690;28;20231;-87
2022/06/05 11:38:02;;;;;;;98.63;73.97;;;;;;;;;;4971584;28;20201;-88
2022/06/05 11:40:35;;;;;;;80.88;65.82;;;;;;;;;;4970918;28;20226;-87
2022/06/05 11:43:17;;;;;;;82.18;63.58;;;;;;;;;;4974549;28;20329;-87
2022/06/05 12:08:01;;;;;;;9.35;7.78;;;;;;;;;;4965891;28;20319;-90
2022/06/05 12:53:59;;;;;;;5.57;3.47;;;;;;;;;;4891067;29;20226;-88
2022/06/05 12:56:55;;;;;;;;;;;;;;;;;;;;;
2022/06/05 12:59:41;;;;;;;33.70;9.93;;;;;;;;;;4945729;29;20219;-91
2022/06/05 13:08:27;;;;;;;6.97;4.30;;;;;;;;;;4939208;29;20216;-87
2022/06/05 13:11:07;;;;;;;10.57;4.47;;;;;;;;;;4942437;29;20228;-87
2022/06/05 13:14:01;;;;;;;11.82;5.35;;;;;;;;;;4950910;29;20220;-87
2022/06/05 13:16:42;;;;;;;9.93;4.50;;;;;;;;;;4955230;29;20201;-86
2022/06/05 13:19:28;;;;;;;8.82;4.35;;;;;;;;;;4942486;29;20213;-86
2022/06/05 13:22:02;;;;;;;6.15;3.60;;;;;;;;;;4953935;29;20229;-86
2022/06/05 13:24:36;;;;;;;7.13;4.28;;;;;;;;;;4958641;28;20200;-86
2022/06/05 13:27:13;;;;;;;5.30;3.80;;;;;;;;;;4948901;28;20292;-86
2022/06/05 13:29:47;;;;;;;7.32;3.92;;;;;;;;;;4955862;28;20213;-87
2022/06/05 13:32:17;;;;;;;5.82;3.75;;;;;;;;;;4954041;28;20685;-86
2022/06/05 13:35:03;;;;;;;8.48;3.92;;;;;;;;;;4941538;29;20279;-88
2022/06/05 15:50:15;;;;;;;4.05;2.30;;;;;;;;;;4882080;29;20271;-86
2022/06/05 15:52:55;;;;;;;2.60;2.05;;;;;;;;;;4915160;29;20304;-86
2022/06/05 15:55:34;;;;;;;3.55;2.03;;;;;;;;;;4913545;29;20269;-86
2022/06/05 15:58:24;;;;;;;1.98;1.73;;;;;;;;;;4915473;29;20210;-85
2022/06/05 16:00:56;;;;;;;3.05;1.98;;;;;;;;;;4912234;29;20225;-85
2022/06/05 16:03:25;;;;;;;3.75;2.13;;;;;;;;;;4915472;29;20202;-86
2022/06/05 16:05:57;;;;;;;3.88;2.17;;;;;;;;;;4911598;29;20215;-85
2022/06/05 16:08:28;;;;;;;3.17;2.10;;;;;;;;;;4914527;29;20298;-86
2022/06/05 16:11:00;;;;;;;2.72;2.13;;;;;;;;;;4916162;29;20269;-86
2022/06/05 16:13:28;;;;;;;4.15;2.05;;;;;;;;;;4912666;29;20202;-84
2022/06/05 16:15:57;;;;;;;2.75;2.30;;;;;;;;;;4914636;29;20210;-88
2022/06/05 16:18:31;;;;;;;2.83;1.90;;;;;;;;;;4912513;29;20265;-86
2022/06/05 16:21:21;;;;;;;2.55;1.98;;;;;;;;;;4954822;23;20234;-92
2022/06/05 16:24:08;;;;;;;2.67;2.20;;;;;;;;;;4991654;28;20246;-91
2022/06/05 16:26:39;;;;;;;2.22;1.95;;;;;;;;;;4987025;28;20227;-91
2022/06/05 16:29:08;;;;;;;3.15;1.80;;;;;;;;;;4989255;28;20215;-91
2022/06/05 16:32:02;;;;;;;2.70;2.10;;;;;;;;;;4972373;28;20221;-91
2022/06/05 16:37:57;;;;;;;2.17;1.90;;;;;;;;;;4886219;29;20199;-91
2022/06/05 16:40:27;;;;;;;2.53;1.98;;;;;;;;;;4960541;28;20232;-90
2022/06/05 16:43:05;;;;;;;2.25;1.75;;;;;;;;;;4960679;28;20578;-90
2022/06/05 16:45:37;;;;;;;1.40;1.30;;;;;;;;;;4965896;28;20296;-91
2022/06/05 16:48:13;;;;;;;1.90;1.50;;;;;;;;;;4969680;28;20231;-90
2022/06/05 16:50:49;;;;;;;1.60;1.20;;;;;;;;;;4967725;28;20227;-91
2022/06/05 16:53:25;;;;;;;1.83;1.30;;;;;;;;;;4964819;28;20208;-90
2022/06/05 16:56:03;;;;;;;3.00;1.80;;;;;;;;;;4962030;28;20267;-91
2022/06/05 16:58:38;;;;;;;3.13;1.40;;;;;;;;;;4964970;28;20203;-90
2022/06/05 17:01:09;;;;;;;1.60;1.50;;;;;;;;;;4966797;28;20267;-91
2022/06/05 17:03:50;;;;;;;3.13;1.45;;;;;;;;;;4962319;28;20219;-90
2022/06/05 17:06:33;;;;;;;2.10;1.30;;;;;;;;;;4968202;28;20267;-91
2022/06/05 17:09:04;;;;;;;1.20;1.15;;;;;;;;;;4965597;28;20256;-91
2022/06/05 17:11:33;;;;;;;1.48;1.30;;;;;;;;;;4971026;28;20236;-91
2022/06/05 17:14:01;;;;;;;2.20;1.30;;;;;;;;;;4968128;28;20251;-91
2022/06/05 17:16:37;;;;;;;1.55;1.40;;;;;;;;;;4972570;28;20252;-91
2022/06/05 17:19:38;;;;;;;2.22;1.30;;;;;;;;;;4971224;28;20251;-92
2022/06/05 17:35:07;;;;;;;4.90;4.43;;;;;;;;;;4969268;28;20231;-94
2022/06/05 17:37:44;;;;;;;13.88;12.55;;;;;;;;;;4961419;28;20223;-92
2022/06/05 17:40:29;;;;;;;23.08;20.45;;;;;;;;;;4959315;28;20243;-93
2022/06/05 17:43:00;;;;;;;25.23;22.58;;;;;;;;;;4954550;28;20200;-93
2022/06/05 17:45:35;;;;;;;22.92;20.55;;;;;;;;;;4959790;28;20196;-91
2022/06/05 17:51:19;;;;;;;18.42;16.42;;;;;;;;;;4871708;29;20215;-92
2022/06/05 17:53:50;;;;;;;14.65;13.15;;;;;;;;;;4870555;29;20208;-90
2022/06/05 17:56:21;;;;;;;12.50;11.20;;;;;;;;;;4875869;29;20207;-89
2022/06/05 18:01:55;;;;;;;12.82;11.55;;;;;;;;;;4875083;29;20231;-92
2022/06/05 18:04:48;;;;;;;12.65;11.35;;;;;;;;;;4876515;29;20203;-91
2022/06/05 18:10:21;;;;;;;10.38;8.82;;;;;;;;;;4873177;29;20214;-92
2022/06/05 18:13:02;;;;;;;9.05;8.23;;;;;;;;;;4873996;29;20209;-92
2022/06/05 18:16:00;;;;;;;8.73;7.57;;;;;;;;;;4877014;29;20226;-92
2022/06/05 18:18:33;;;;;;;8.82;7.20;;;;;;;;;;4879188;29;20204;-91
2022/06/05 18:21:07;;;;;;;8.05;7.22;;;;;;;;;;4876402;29;20226;-93
2022/06/05 18:23:51;;;;;;;;;;;;;;;;;;;;;
2022/06/05 18:26:27;;;;;;;5.10;4.43;;;;;;;;;;4876579;29;20210;-94
2022/06/05 18:28:55;;;;;;;4.47;4.07;;;;;;;;;;4935959;28;20243;-91
2022/06/05 18:31:25;;;;;;;6.05;4.85;;;;;;;;;;4959252;28;20227;-91
2022/06/05 18:34:00;;;;;;;4.63;4.22;;;;;;;;;;4956242;28;20291;-91
2022/06/05 18:39:32;;;;;;;5.72;4.20;;;;;;;;;;4955985;28;20334;-92
2022/06/05 18:42:01;;;;;;;5.13;4.32;;;;;;;;;;4961420;28;20227;-93
2022/06/05 18:44:31;;;;;;;4.80;4.25;;;;;;;;;;4956924;28;20196;-92
2022/06/05 18:47:04;;;;;;;4.57;4.18;;;;;;;;;;4954216;28;20201;-92
2022/06/05 18:49:36;;;;;;;4.75;4.20;;;;;;;;;;4957829;28;20227;-92
2022/06/05 18:52:09;;;;;;;7.15;4.30;;;;;;;;;;4958209;28;20224;-92
2022/06/05 18:54:42;;;;;;;4.47;4.07;;;;;;;;;;4954086;28;20235;-92
2022/06/05 18:57:24;;;;;;;4.88;3.70;;;;;;;;;;4956950;28;20208;-91
2022/06/05 18:59:55;;;;;;;3.75;3.38;;;;;;;;;;4958501;28;20200;-92
2022/06/05 19:02:24;;;;;;;4.32;3.67;;;;;;;;;;4955622;28;20255;-92
2022/06/05 19:04:56;;;;;;;4.22;3.30;;;;;;;;;;4956513;28;20201;-92
2022/06/05 19:07:28;;;;;;;4.35;3.53;;;;;;;;;;4955834;28;20391;-92
2022/06/05 19:09:56;;;;;;;3.67;3.03;;;;;;;;;;4954501;28;20204;-91
2022/06/05 19:12:31;;;;;;;3.40;3.10;;;;;;;;;;4961686;28;20234;-92
2022/06/05 19:15:14;;;;;;;3.70;2.80;;;;;;;;;;4963262;28;20227;-92
2022/06/05 19:17:49;;;;;;;3.22;2.92;;;;;;;;;;4955821;28;20228;-92
2022/06/05 19:20:51;;;;;;;3.22;2.80;;;;;;;;;;4960931;28;20215;-92
2022/06/05 19:23:36;;;;;;;4.32;3.17;;;;;;;;;;4976287;28;20253;-92
2022/06/05 19:26:19;;;;;;;3.13;2.83;;;;;;;;;;4957256;28;20200;-92
2022/06/05 19:29:04;;;;;;;3.63;2.75;;;;;;;;;;4963000;28;20368;-89
2022/06/05 19:34:21;;;;;;;3.10;2.90;;;;;;;;;;4953872;28;20681;-90
2022/06/05 19:39:38;;;;;;;3.25;2.95;;;;;;;;;;4961347;28;20346;-90
2022/06/05 19:42:25;;;;;;;2.80;2.53;;;;;;;;;;4971857;28;20220;-90
2022/06/05 19:44:58;;;;;;;2.95;2.65;;;;;;;;;;4955391;28;20212;-90
2022/06/05 19:57:29;;;;;;;2.85;2.65;;;;;;;;;;4821882;29;20246;-91
2022/06/05 20:00:17;;;;;;;2.40;2.20;;;;;;;;;;4837714;29;20231;-89
2022/06/05 20:03:30;;;;;;;2.65;2.05;;;;;;;;;;4849268;29;20207;-90
2022/06/05 20:12:31;;;;;;;3.80;2.55;;;;;;;;;;4838188;29;20217;-90
2022/06/05 20:15:17;;;;;;;3.08;2.60;;;;;;;;;;4850450;29;20231;-90
2022/06/05 20:18:11;;;;;;;2.42;2.22;;;;;;;;;;4876770;29;20209;-89
2022/06/05 20:20:44;;;;;;;3.10;2.78;;;;;;;;;;4922064;29;20229;-89
2022/06/05 20:23:43;;;;;;;3.63;2.40;;;;;;;;;;4924526;29;20212;-89
2022/06/05 20:29:31;;;;;;;3.30;2.60;;;;;;;;;;4845075;29;20234;-90
2022/06/05 20:41:44;;;;;;;2.33;2.10;;;;;;;;;;4929574;29;20232;-89
2022/06/05 20:47:50;;;;;;;2.22;2.00;;;;;;;;;;4931899;28;20208;-89